Time;durP1;ratioP1;P1;durP2;ratioP2;P2;SDS_P1;SDS_P2;PMS_P1;PMS_P2;Temp;Humidity;BMP_temperature;BMP_pressure;BME280_temperature;BME280_humidity;BME280_pressure;Samples;Min_cycle;Max_cycle;Signal;HPM_P1;HPM_P2
2022/05/23 00:01:48;;;;;;;4.87;2.47;;;17.40;99.90;;;;;;5056398;28;20207;-41
2022/05/23 00:04:14;;;;;;;5.00;2.13;;;17.30;99.90;;;;;;5074706;28;20185;-39
2022/05/23 00:06:40;;;;;;;8.47;2.10;;;17.30;99.90;;;;;;5074258;28;20167;-39
2022/05/23 00:09:06;;;;;;;4.17;2.10;;;17.20;99.90;;;;;;5074583;28;20215;-39
2022/05/23 00:11:32;;;;;;;3.57;2.00;;;17.20;99.90;;;;;;5074091;28;20195;-41
2022/05/23 00:13:58;;;;;;;3.37;1.70;;;17.20;99.90;;;;;;5074297;28;20215;-41
2022/05/23 00:16:33;;;;;;;4.73;2.27;;;17.20;99.90;;;;;;5074815;28;20188;-40
2022/05/23 00:18:59;;;;;;;5.47;1.70;;;17.20;99.90;;;;;;5073856;28;20249;-40
2022/05/23 00:21:25;;;;;;;4.57;2.00;;;17.20;99.90;;;;;;5074152;28;20609;-39
2022/05/23 00:23:50;;;;;;;6.77;1.67;;;17.20;99.90;;;;;;5074056;28;20176;-39
2022/05/23 00:26:19;;;;;;;3.77;2.03;;;17.20;99.90;;;;;;5074063;28;20270;-41
2022/05/23 00:28:45;;;;;;;3.17;1.70;;;17.20;99.90;;;;;;5055759;28;20199;-41
2022/05/23 00:31:11;;;;;;;3.87;1.80;;;17.20;99.90;;;;;;5073817;28;20188;-41
2022/05/23 00:36:24;;;;;;;1.97;1.77;;;17.20;99.90;;;;;;5073817;28;20605;-40
2022/05/23 00:38:51;;;;;;;3.47;1.40;;;17.20;99.90;;;;;;5073825;28;20200;-40
2022/05/23 00:44:27;;;;;;;2.70;1.80;;;17.20;99.90;;;;;;5074602;28;20174;-40
2022/05/23 00:46:59;;;;;;;2.23;2.00;;;17.10;99.90;;;;;;5073736;28;20195;-41
2022/05/23 00:49:33;;;;;;;2.80;2.17;;;17.10;99.90;;;;;;5074346;28;20183;-40
2022/05/23 00:52:04;;;;;;;4.97;1.90;;;17.10;99.90;;;;;;5074257;28;20166;-42
2022/05/23 00:54:37;;;;;;;2.30;1.80;;;17.00;99.90;;;;;;5074776;28;20221;-43
2022/05/23 00:57:04;;;;;;;3.07;1.87;;;17.00;99.90;;;;;;5076965;28;20163;-44
2022/05/23 00:59:32;;;;;;;2.67;1.97;;;16.90;99.90;;;;;;5079605;28;20643;-40
2022/05/23 01:01:59;;;;;;;3.03;2.03;;;16.90;99.90;;;;;;5080176;28;20304;-40
2022/05/23 01:04:25;;;;;;;6.80;2.30;;;16.90;99.90;;;;;;5074750;28;20189;-41
2022/05/23 01:06:51;;;;;;;2.80;2.10;;;16.80;99.90;;;;;;5073525;28;20263;-40
2022/05/23 01:09:20;;;;;;;4.73;1.93;;;16.80;99.90;;;;;;5073845;28;20187;-38
2022/05/23 01:11:45;;;;;;;3.53;1.80;;;16.80;99.90;;;;;;5055558;28;20214;-40
2022/05/23 01:14:11;;;;;;;4.67;1.90;;;16.80;99.90;;;;;;5073555;28;20620;-39
2022/05/23 01:16:37;;;;;;;5.93;2.17;;;16.70;99.90;;;;;;5073549;28;20274;-39
2022/05/23 01:19:03;;;;;;;2.60;1.73;;;16.70;99.90;;;;;;5073483;28;20253;-42
2022/05/23 01:21:43;;;;;;;4.57;2.10;;;16.70;99.90;;;;;;5073043;28;20246;-41
2022/05/23 01:24:26;;;;;;;3.20;1.77;;;16.70;99.90;;;;;;5073436;28;20263;-39
2022/05/23 01:26:55;;;;;;;3.03;1.80;;;16.70;99.90;;;;;;5073147;28;20174;-39
2022/05/23 01:29:20;;;;;;;3.73;2.07;;;16.70;99.90;;;;;;5073196;28;20182;-41
2022/05/23 01:31:46;;;;;;;5.10;2.23;;;16.70;99.90;;;;;;5073230;28;20184;-41
2022/05/23 01:34:11;;;;;;;3.63;1.93;;;16.70;99.90;;;;;;5073587;28;20183;-40
2022/05/23 01:36:37;;;;;;;2.63;1.93;;;16.80;99.90;;;;;;5073064;28;20190;-41
2022/05/23 01:39:03;;;;;;;4.47;2.00;;;16.80;99.90;;;;;;5073030;28;20656;-40
2022/05/23 01:41:28;;;;;;;5.10;1.83;;;16.80;99.90;;;;;;5072930;28;20280;-42
2022/05/23 01:43:54;;;;;;;4.50;1.80;;;16.80;99.90;;;;;;5054824;28;20183;-40
2022/05/23 01:46:20;;;;;;;3.90;2.00;;;16.80;99.90;;;;;;5072866;28;20301;-39
2022/05/23 01:48:46;;;;;;;2.83;2.13;;;16.80;99.90;;;;;;5073176;28;20195;-40
2022/05/23 01:51:12;;;;;;;2.57;1.90;;;16.80;99.90;;;;;;5071669;28;20549;-38
2022/05/23 01:53:38;;;;;;;4.30;2.40;;;16.80;99.90;;;;;;5073509;28;20350;-44
2022/05/23 01:56:05;;;;;;;4.43;2.30;;;16.80;99.90;;;;;;5073665;28;20210;-39
2022/05/23 02:01:15;;;;;;;5.43;2.47;;;16.80;99.90;;;;;;5073098;28;20319;-38
2022/05/23 02:03:43;;;;;;;6.27;2.67;;;16.80;99.90;;;;;;5072782;28;20207;-42
2022/05/23 02:06:09;;;;;;;4.27;2.20;;;16.70;99.90;;;;;;5072817;28;20183;-39
2022/05/23 02:08:34;;;;;;;2.47;1.90;;;16.80;99.90;;;;;;5072666;28;20192;-39
2022/05/23 02:11:00;;;;;;;3.73;2.67;;;16.80;99.90;;;;;;5072728;28;20188;-39
2022/05/23 02:13:26;;;;;;;4.47;2.37;;;16.80;99.90;;;;;;5073185;28;20647;-39
2022/05/23 02:15:51;;;;;;;3.63;2.20;;;16.70;99.90;;;;;;5072951;28;20631;-42
2022/05/23 02:18:17;;;;;;;2.97;2.10;;;16.70;99.90;;;;;;5072652;28;20659;-39
2022/05/23 02:20:42;;;;;;;4.23;2.03;;;16.70;99.90;;;;;;5077051;28;20278;-39
2022/05/23 02:23:08;;;;;;;3.83;2.10;;;16.70;99.90;;;;;;5076621;28;20217;-43
2022/05/23 02:25:35;;;;;;;3.33;2.30;;;16.70;99.90;;;;;;5076804;28;20254;-40
2022/05/23 02:28:00;;;;;;;3.80;2.23;;;16.80;99.90;;;;;;5058615;28;20567;-40
2022/05/23 02:30:26;;;;;;;4.07;2.00;;;16.70;99.90;;;;;;5076531;28;20176;-42
2022/05/23 02:32:52;;;;;;;3.10;2.10;;;16.70;99.90;;;;;;5076086;28;20180;-39
2022/05/23 02:35:19;;;;;;;5.30;1.93;;;16.70;99.90;;;;;;5076019;28;20237;-43
2022/05/23 02:37:45;;;;;;;3.30;2.20;;;16.70;99.90;;;;;;5075817;28;20249;-39
2022/05/23 02:40:12;;;;;;;4.20;2.33;;;16.70;99.90;;;;;;5057909;28;20175;-39
2022/05/23 02:42:37;;;;;;;2.07;1.90;;;16.70;99.90;;;;;;5076040;28;20214;-39
2022/05/23 02:45:06;;;;;;;3.53;2.13;;;16.70;99.90;;;;;;5075981;28;20245;-39
2022/05/23 02:47:32;;;;;;;3.63;2.57;;;16.60;99.90;;;;;;5076085;28;20207;-41
2022/05/23 02:49:58;;;;;;;2.47;2.10;;;16.60;99.90;;;;;;5076023;28;20262;-39
2022/05/23 02:52:24;;;;;;;3.40;2.50;;;16.70;99.90;;;;;;5076139;28;20263;-39
2022/05/23 02:54:49;;;;;;;5.77;2.50;;;16.60;99.90;;;;;;5076029;28;20184;-39
2022/05/23 02:57:15;;;;;;;5.63;2.30;;;16.60;99.90;;;;;;5075589;28;20204;-39
2022/05/23 02:59:41;;;;;;;2.97;2.30;;;16.60;99.90;;;;;;5076245;28;20628;-39
2022/05/23 03:04:51;;;;;;;2.83;2.23;;;16.50;99.90;;;;;;5076008;28;20212;-41
2022/05/23 03:07:16;;;;;;;3.00;2.17;;;16.50;99.90;;;;;;5075611;28;20207;-40
2022/05/23 03:09:44;;;;;;;4.70;2.30;;;16.50;99.90;;;;;;5075432;28;20190;-40
2022/05/23 03:12:10;;;;;;;3.20;2.20;;;16.50;99.90;;;;;;5075466;28;20214;-40
2022/05/23 03:14:36;;;;;;;3.90;2.50;;;16.40;99.90;;;;;;5075296;28;20233;-41
2022/05/23 03:17:04;;;;;;;3.50;2.33;;;16.40;99.90;;;;;;5075655;28;20188;-41
2022/05/23 03:19:29;;;;;;;4.10;2.37;;;16.40;99.90;;;;;;5075296;28;20183;-41
2022/05/23 03:27:24;;;;;;;3.50;2.33;;;16.40;99.90;;;;;;5075484;28;20206;-40
2022/05/23 03:29:51;;;;;;;4.03;2.27;;;16.40;99.90;;;;;;5074428;28;20646;-41
2022/05/23 03:32:17;;;;;;;2.67;1.97;;;16.40;99.90;;;;;;5074829;28;20191;-41
2022/05/23 03:34:42;;;;;;;3.53;2.47;;;16.40;99.90;;;;;;5074941;28;20190;-41
2022/05/23 03:37:08;;;;;;;2.87;2.20;;;16.40;99.90;;;;;;5075080;28;20266;-43
2022/05/23 03:39:37;;;;;;;5.27;2.43;;;16.40;99.90;;;;;;5074874;28;20623;-41
2022/05/23 03:42:04;;;;;;;3.03;2.30;;;16.40;99.90;;;;;;5056794;28;20211;-42
2022/05/23 03:44:29;;;;;;;3.43;2.47;;;16.40;99.90;;;;;;5075617;28;20629;-41
2022/05/23 03:46:55;;;;;;;5.17;2.60;;;16.40;99.90;;;;;;5076169;28;20243;-42
2022/05/23 03:49:21;;;;;;;6.17;2.30;;;16.30;99.90;;;;;;5074647;28;20179;-41
2022/05/23 03:51:47;;;;;;;3.00;2.20;;;16.30;99.90;;;;;;5074625;28;20182;-38
2022/05/23 03:54:12;;;;;;;3.77;2.30;;;16.30;99.90;;;;;;5074668;28;20188;-41
2022/05/23 03:56:38;;;;;;;4.03;2.40;;;16.20;99.90;;;;;;5074460;28;20179;-38
2022/05/23 03:59:04;;;;;;;4.00;2.40;;;16.20;99.90;;;;;;5074386;28;20277;-41
2022/05/23 04:01:30;;;;;;;3.93;2.40;;;16.20;99.90;;;;;;5056895;28;20214;-43
2022/05/23 04:03:57;;;;;;;5.37;2.50;;;16.20;99.90;;;;;;5076230;28;20184;-43
2022/05/23 04:06:23;;;;;;;7.30;2.43;;;16.10;99.90;;;;;;5075241;28;20631;-43
2022/05/23 04:08:48;;;;;;;6.57;2.67;;;16.20;99.90;;;;;;5076043;28;20200;-43
2022/05/23 04:11:14;;;;;;;3.87;2.27;;;16.20;99.90;;;;;;5075932;28;20232;-44
2022/05/23 04:13:40;;;;;;;4.53;2.60;;;16.20;99.90;;;;;;5057607;28;20207;-42
2022/05/23 04:16:05;;;;;;;4.13;2.53;;;16.20;99.90;;;;;;5074285;28;20183;-47
2022/05/23 04:18:33;;;;;;;7.70;2.50;;;16.20;99.90;;;;;;5075857;28;20207;-42
2022/05/23 04:21:01;;;;;;;6.60;2.53;;;16.20;99.90;;;;;;5075192;28;20686;-43
2022/05/23 04:23:27;;;;;;;2.67;2.10;;;16.20;99.90;;;;;;5075717;28;20196;-44
2022/05/23 04:25:53;;;;;;;4.60;2.20;;;16.30;99.90;;;;;;5075519;28;20245;-43
2022/05/23 04:28:20;;;;;;;5.93;2.50;;;16.30;99.90;;;;;;5075532;28;20195;-45
2022/05/23 04:30:46;;;;;;;6.60;2.67;;;16.30;99.90;;;;;;5057446;28;20639;-44
2022/05/23 04:35:58;;;;;;;5.20;2.50;;;16.30;99.90;;;;;;5075725;28;20245;-45
2022/05/23 04:38:24;;;;;;;3.87;2.50;;;16.30;99.90;;;;;;5075619;28;20203;-41
2022/05/23 04:40:50;;;;;;;3.03;2.17;;;16.40;99.90;;;;;;5075218;28;20203;-43
2022/05/23 04:43:16;;;;;;;3.60;2.20;;;16.40;99.90;;;;;;5075378;28;20271;-43
2022/05/23 04:45:42;;;;;;;6.07;2.53;;;16.40;99.90;;;;;;5076351;28;20278;-44
2022/05/23 04:50:53;;;;;;;4.67;2.40;;;16.40;99.90;;;;;;5060764;28;20222;-42
2022/05/23 04:53:18;;;;;;;5.63;2.17;;;16.50;99.90;;;;;;5074840;28;20643;-44
2022/05/23 04:55:44;;;;;;;3.30;2.03;;;16.50;99.90;;;;;;5075365;28;20685;-45
2022/05/23 04:58:13;;;;;;;4.50;2.30;;;16.60;99.90;;;;;;5074930;28;20199;-45
2022/05/23 05:00:40;;;;;;;4.30;2.30;;;16.60;99.90;;;;;;5074063;28;20184;-41
2022/05/23 05:03:06;;;;;;;2.53;1.80;;;16.60;99.90;;;;;;5073799;28;20595;-42
2022/05/23 05:05:33;;;;;;;4.37;1.90;;;16.60;99.90;;;;;;5073452;28;20187;-42
2022/05/23 05:08:00;;;;;;;2.33;2.00;;;16.60;99.90;;;;;;5073585;28;20192;-43
2022/05/23 05:10:27;;;;;;;3.37;2.00;;;16.60;99.90;;;;;;5075158;28;20187;-43
2022/05/23 05:12:54;;;;;;;4.37;1.97;;;16.70;99.90;;;;;;5076969;28;20176;-44
2022/05/23 05:15:21;;;;;;;5.90;2.23;;;16.70;99.90;;;;;;5074923;28;20179;-44
2022/05/23 05:17:47;;;;;;;3.00;2.00;;;16.70;99.90;;;;;;5075245;28;20200;-44
2022/05/23 05:20:15;;;;;;;3.67;2.17;;;16.80;99.90;;;;;;5075462;28;20263;-46
2022/05/23 05:22:41;;;;;;;5.40;2.30;;;16.80;99.90;;;;;;5075122;28;20610;-44
2022/05/23 05:25:09;;;;;;;5.10;2.10;;;16.90;99.90;;;;;;5040625;28;20177;-43
2022/05/23 05:27:35;;;;;;;5.87;2.10;;;17.00;99.90;;;;;;5075110;28;20199;-44
2022/05/23 05:30:02;;;;;;;4.57;2.17;;;17.00;99.90;;;;;;5074636;28;20176;-46
2022/05/23 05:33:10;;;;;;;5.30;2.40;;;17.00;99.90;;;;;;5074388;28;20190;-43
2022/05/23 05:35:43;;;;;;;4.57;2.37;;;17.10;99.90;;;;;;5061283;28;20537;-44
2022/05/23 05:38:32;;;;;;;5.03;2.43;;;17.10;99.90;;;;;;5074255;28;20249;-44
2022/05/23 05:41:07;;;;;;;4.73;2.60;;;17.10;99.90;;;;;;5074679;28;20199;-45
2022/05/23 05:43:43;;;;;;;5.17;2.40;;;17.10;99.90;;;;;;5074873;28;20258;-43
2022/05/23 05:46:16;;;;;;;8.07;2.20;;;17.10;99.90;;;;;;5074732;28;20202;-47
2022/05/23 05:48:46;;;;;;;6.47;2.77;;;17.10;99.90;;;;;;5075130;28;20199;-44
2022/05/23 05:51:15;;;;;;;4.03;2.10;;;17.10;99.90;;;;;;5075052;28;20531;-43
2022/05/23 05:53:41;;;;;;;5.93;2.20;;;17.10;99.90;;;;;;5075904;28;20180;-44
2022/05/23 05:56:09;;;;;;;3.80;2.17;;;17.10;99.90;;;;;;5060812;28;20195;-45
2022/05/23 05:58:35;;;;;;;4.40;1.97;;;17.20;99.90;;;;;;5079005;28;20211;-44
2022/05/23 06:01:00;;;;;;;10.50;2.20;;;17.20;99.90;;;;;;5078595;28;20230;-45
2022/05/23 06:03:26;;;;;;;3.93;2.20;;;17.30;99.90;;;;;;5079199;28;20180;-46
2022/05/23 06:13:52;;;;;;;4.67;2.27;;;17.60;99.90;;;;;;5080429;28;20167;-45
2022/05/23 06:16:19;;;;;;;7.40;2.60;;;17.70;99.90;;;;;;5079122;28;20183;-43
2022/05/23 06:18:45;;;;;;;3.33;2.20;;;17.80;99.90;;;;;;5079286;28;20215;-45
2022/05/23 06:21:11;;;;;;;7.20;2.47;;;17.90;99.90;;;;;;5078421;28;20215;-43
2022/05/23 06:23:37;;;;;;;4.27;2.53;;;18.00;99.90;;;;;;5078683;28;20176;-43
2022/05/23 06:26:03;;;;;;;4.93;2.17;;;18.00;99.90;;;;;;5078605;28;20172;-44
2022/05/23 06:28:29;;;;;;;4.43;2.03;;;18.10;99.90;;;;;;5078671;28;20231;-44
2022/05/23 06:30:57;;;;;;;7.40;2.30;;;18.20;99.90;;;;;;5079314;28;20557;-45
2022/05/23 06:33:23;;;;;;;5.80;2.50;;;18.30;99.90;;;;;;5079024;28;20254;-44
2022/05/23 06:35:49;;;;;;;3.73;2.50;;;18.30;99.90;;;;;;5079163;28;20674;-46
2022/05/23 06:38:16;;;;;;;4.93;2.63;;;18.40;99.90;;;;;;5078910;28;20305;-44
2022/05/23 06:40:42;;;;;;;3.63;2.07;;;18.40;99.90;;;;;;5079371;28;20191;-45
2022/05/23 06:43:08;;;;;;;2.20;2.00;;;18.40;99.90;;;;;;5078773;28;20190;-45
2022/05/23 06:45:34;;;;;;;5.17;2.13;;;18.40;99.90;;;;;;5078741;28;20198;-45
2022/05/23 06:47:59;;;;;;;6.10;2.27;;;18.40;99.90;;;;;;5079116;28;20203;-45
2022/05/23 06:50:25;;;;;;;3.33;1.87;;;18.50;99.90;;;;;;5078732;28;20175;-44
2022/05/23 06:52:51;;;;;;;3.50;2.10;;;18.50;99.90;;;;;;5078790;28;20515;-44
2022/05/23 06:55:17;;;;;;;4.90;2.00;;;18.50;99.90;;;;;;5078515;28;20186;-44
2022/05/23 06:57:43;;;;;;;4.60;2.13;;;18.50;99.90;;;;;;5078432;28;20195;-44
2022/05/23 07:00:09;;;;;;;5.20;2.00;;;18.50;99.90;;;;;;5078134;28;20516;-44
2022/05/23 07:02:38;;;;;;;3.03;1.80;;;18.50;99.90;;;;;;5077933;28;20245;-39
2022/05/23 07:13:17;;;;;;;9.10;2.10;;;18.60;99.90;;;;;;5076015;28;20170;-41
2022/05/23 07:15:47;;;;;;;7.93;2.50;;;18.70;99.90;;;;;;5075718;28;20255;-40
2022/05/23 07:18:14;;;;;;;8.97;2.30;;;18.80;99.90;;;;;;5075477;28;20252;-41
2022/05/23 07:20:41;;;;;;;6.87;2.30;;;18.80;99.90;;;;;;5075284;28;20176;-41
2022/05/23 07:23:07;;;;;;;7.83;1.90;;;18.90;99.90;;;;;;5075321;28;20519;-41
2022/05/23 07:25:32;;;;;;;6.33;2.20;;;19.00;99.90;;;;;;5075311;28;20186;-41
2022/05/23 07:27:58;;;;;;;4.57;2.13;;;19.00;99.90;;;;;;5075484;28;20192;-41
2022/05/23 07:30:24;;;;;;;6.67;2.20;;;19.20;99.90;;;;;;5075315;28;20180;-39
2022/05/23 07:32:50;;;;;;;4.63;2.00;;;19.30;99.90;;;;;;5073796;28;20216;-40
2022/05/23 07:35:17;;;;;;;14.30;2.37;;;19.60;99.90;;;;;;5075002;28;20187;-39
2022/05/23 07:37:43;;;;;;;9.07;2.20;;;19.70;99.90;;;;;;5075028;28;20196;-40
2022/05/23 07:40:09;;;;;;;4.63;2.30;;;19.80;99.90;;;;;;5075096;28;20311;-40
2022/05/23 07:42:36;;;;;;;3.40;1.93;;;19.90;99.90;;;;;;5074636;28;20203;-41
2022/05/23 07:45:03;;;;;;;8.67;2.23;;;20.00;99.90;;;;;;5074750;28;20202;-39
2022/05/23 07:47:29;;;;;;;4.97;2.13;;;20.00;99.90;;;;;;5074817;28;20188;-41
2022/05/23 07:49:54;;;;;;;7.43;2.17;;;20.10;99.90;;;;;;5074906;28;20530;-40
2022/05/23 07:52:20;;;;;;;3.07;1.90;;;20.20;99.90;;;;;;5074886;28;20237;-41
2022/05/23 08:03:14;;;;;;;3.97;1.70;;;20.30;99.90;;;;;;5075471;28;20191;-40
2022/05/23 08:05:40;;;;;;;6.57;1.93;;;20.40;99.90;;;;;;5075000;28;20171;-39
2022/05/23 08:08:06;;;;;;;3.70;2.00;;;20.40;99.90;;;;;;5075260;28;20212;-40
2022/05/23 08:10:31;;;;;;;6.43;2.30;;;20.50;99.90;;;;;;5074608;28;20647;-40
2022/05/23 08:12:58;;;;;;;6.73;2.33;;;20.70;99.90;;;;;;5074479;28;20175;-41
2022/05/23 08:15:25;;;;;;;3.43;1.80;;;20.70;99.90;;;;;;5074324;28;20723;-41
2022/05/23 08:17:51;;;;;;;4.63;1.70;;;20.80;99.90;;;;;;5073507;28;20203;-40
2022/05/23 08:20:17;;;;;;;5.33;2.10;;;20.90;99.90;;;;;;5074804;28;20233;-41
2022/05/23 08:22:44;;;;;;;3.80;1.87;;;20.90;99.90;;;;;;5073924;28;20208;-42
2022/05/23 08:25:10;;;;;;;4.57;1.97;;;21.00;99.90;;;;;;5074277;28;20199;-40
2022/05/23 08:27:36;;;;;;;3.63;1.70;;;21.00;99.90;;;;;;5073877;28;20241;-42
2022/05/23 08:30:04;;;;;;;4.97;2.10;;;21.10;99.90;;;;;;5073965;28;20540;-41
2022/05/23 08:32:30;;;;;;;4.83;1.50;;;21.00;99.90;;;;;;5074141;28;20266;-41
2022/05/23 08:34:56;;;;;;;2.93;1.70;;;21.00;99.90;;;;;;5074112;28;20210;-41
2022/05/23 08:37:21;;;;;;;1.67;1.57;;;21.00;99.90;;;;;;5073670;28;20594;-41
2022/05/23 08:39:47;;;;;;;2.73;1.33;;;20.90;99.90;;;;;;5056135;28;20188;-42
2022/05/23 08:42:46;;;;;;;1.90;1.70;;;20.90;99.90;;;;;;5074054;28;20293;-41
2022/05/23 08:45:35;;;;;;;2.20;1.67;;;20.80;99.90;;;;;;5070526;28;20214;-41
2022/05/23 08:48:28;;;;;;;6.77;1.83;;;20.80;99.90;;;;;;5055844;28;20202;-40
2022/05/23 08:51:12;;;;;;;3.03;1.70;;;20.80;99.90;;;;;;5073098;28;20217;-41
2022/05/23 08:54:00;;;;;;;4.90;2.00;;;20.70;99.90;;;;;;5074200;28;20254;-42
2022/05/23 08:56:40;;;;;;;3.17;1.90;;;20.70;99.90;;;;;;5073842;28;20243;-40
2022/05/23 08:59:37;;;;;;;2.60;1.93;;;20.60;99.90;;;;;;5074656;28;20616;-39
2022/05/23 09:02:15;;;;;;;8.10;2.20;;;20.70;99.90;;;;;;5066829;28;20250;-40
2022/05/23 09:04:51;;;;;;;7.07;2.00;;;20.60;99.90;;;;;;5075678;28;20199;-39
2022/05/23 09:07:41;;;;;;;3.93;1.83;;;20.60;99.90;;;;;;5076079;28;20564;-41
2022/05/23 09:10:43;;;;;;;5.10;2.27;;;20.70;99.90;;;;;;5057051;28;20529;-40
2022/05/23 09:13:12;;;;;;;3.80;1.93;;;20.70;99.90;;;;;;5054733;28;20500;-41
2022/05/23 09:15:38;;;;;;;3.83;1.90;;;20.70;99.90;;;;;;5073887;28;20189;-39
2022/05/23 09:18:06;;;;;;;3.43;2.10;;;20.80;99.90;;;;;;5073862;28;20820;-40
2022/05/23 09:20:40;;;;;;;9.67;2.33;;;20.80;99.90;;;;;;5073656;28;20653;-42
2022/05/23 09:23:26;;;;;;;4.93;2.70;;;20.90;99.90;;;;;;5073734;28;20167;-40
2022/05/23 09:25:54;;;;;;;6.70;2.37;;;21.10;99.90;;;;;;5073867;28;20166;-38
2022/05/23 09:28:31;;;;;;;13.67;2.27;;;21.30;99.90;;;;;;5073670;28;20198;-40
2022/05/23 09:31:19;;;;;;;4.90;1.93;;;21.50;99.90;;;;;;5078019;28;20511;-38
2022/05/23 09:33:48;;;;;;;9.10;2.30;;;21.70;99.90;;;;;;5076590;28;20187;-40
2022/05/23 09:36:25;;;;;;;6.90;1.83;;;22.10;99.90;;;;;;5077406;28;20178;-40
2022/05/23 09:39:00;;;;;;;5.90;2.00;;;22.30;99.90;;;;;;5077259;28;20194;-41
2022/05/23 09:47:54;;;;;;;4.10;1.50;;;22.50;99.90;;;;;;5077673;28;20202;-40
2022/05/23 09:50:26;;;;;;;5.30;1.70;;;22.50;99.90;;;;;;5077787;28;20152;-40
2022/05/23 09:52:56;;;;;;;5.13;2.10;;;22.50;99.90;;;;;;5077725;28;20294;-40
2022/05/23 09:55:30;;;;;;;3.93;1.97;;;22.60;99.90;;;;;;5078361;28;20171;-40
2022/05/23 09:58:00;;;;;;;5.07;1.67;;;22.60;99.90;;;;;;5077537;28;20207;-41
2022/05/23 10:00:32;;;;;;;6.03;2.00;;;22.80;99.90;;;;;;5078405;28;20233;-38
2022/05/23 10:03:01;;;;;;;3.17;1.60;;;23.00;99.90;;;;;;5077214;28;20191;-39
2022/05/23 10:05:36;;;;;;;6.47;1.90;;;23.20;99.90;;;;;;5077217;28;20167;-39
2022/05/23 10:08:28;;;;;;;2.73;1.80;;;23.30;99.90;;;;;;5076799;28;20191;-40
2022/05/23 10:10:58;;;;;;;2.53;1.80;;;23.50;99.90;;;;;;5069983;28;20183;-42
2022/05/23 10:13:30;;;;;;;5.83;1.83;;;23.60;99.90;;;;;;5076852;28;20222;-41
2022/05/23 10:16:08;;;;;;;2.20;1.73;;;23.80;99.90;;;;;;5076812;28;20648;-39
2022/05/23 10:18:37;;;;;;;2.00;1.60;;;23.80;99.90;;;;;;5076697;28;20555;-39
2022/05/23 10:21:31;;;;;;;4.47;1.70;;;23.90;99.90;;;;;;5076271;28;20246;-41
2022/05/23 10:24:05;;;;;;;5.23;1.87;;;24.00;99.90;;;;;;5076542;28;20164;-41
2022/05/23 10:26:33;;;;;;;5.37;1.87;;;24.20;99.90;;;;;;5076438;28;20163;-41
2022/05/23 10:29:10;;;;;;;3.73;1.70;;;24.30;99.90;;;;;;5076287;28;20199;-41
2022/05/23 10:31:52;;;;;;;8.23;2.13;;;24.40;99.90;;;;;;5076401;28;20221;-40
2022/05/23 10:34:48;;;;;;;5.77;2.03;;;24.60;99.90;;;;;;5076426;28;20155;-41
2022/05/23 10:37:23;;;;;;;4.87;1.70;;;24.70;99.90;;;;;;5076381;28;20266;-41
2022/05/23 10:42:49;;;;;;;3.13;1.80;;;24.90;99.90;;;;;;5075995;28;20716;-41
2022/05/23 10:45:26;;;;;;;4.67;1.60;;;25.00;99.90;;;;;;5075679;28;20202;-42
2022/05/23 10:48:10;;;;;;;6.57;2.57;;;25.00;99.90;;;;;;5075820;28;20203;-40
2022/05/23 10:50:56;;;;;;;6.83;2.07;;;25.10;99.90;;;;;;5075805;28;20255;-40
2022/05/23 10:53:40;;;;;;;3.43;1.93;;;25.20;99.90;;;;;;5076039;28;20168;-42
2022/05/23 10:56:27;;;;;;;3.07;1.90;;;25.30;99.90;;;;;;5075562;28;20172;-41
2022/05/23 10:59:06;;;;;;;4.37;1.83;;;25.40;99.90;;;;;;5075811;28;20314;-41
2022/05/23 11:01:55;;;;;;;7.10;1.93;;;25.50;99.90;;;;;;5076627;28;20191;-40
2022/05/23 11:04:41;;;;;;;2.97;1.83;;;25.60;99.90;;;;;;5077736;28;20218;-41
2022/05/23 11:07:33;;;;;;;3.97;2.00;;;25.70;99.90;;;;;;5075839;28;20172;-43
2022/05/23 11:10:31;;;;;;;4.57;2.00;;;25.90;99.90;;;;;;5075494;28;20174;-40
2022/05/23 11:13:11;;;;;;;3.63;1.77;;;26.00;99.90;;;;;;5050639;28;20187;-42
2022/05/23 11:16:01;;;;;;;6.97;2.20;;;26.00;99.90;;;;;;5075707;28;20164;-42
2022/05/23 11:18:32;;;;;;;1.83;1.60;;;26.00;99.90;;;;;;5075220;28;20195;-41
2022/05/23 11:21:03;;;;;;;4.87;2.10;;;25.90;99.90;;;;;;5075743;28;20547;-41
2022/05/23 11:23:53;;;;;;;2.90;2.03;;;25.90;99.90;;;;;;5075503;28;20171;-40
2022/05/23 11:26:28;;;;;;;2.40;1.70;;;26.00;99.90;;;;;;5075326;28;20611;-41
2022/05/23 11:35:07;;;;;;;4.27;1.83;;;26.60;99.90;;;;;;5075290;28;20206;-42
2022/05/23 11:37:42;;;;;;;4.00;1.90;;;26.80;99.90;;;;;;5074860;28;20659;-42
2022/05/23 11:40:11;;;;;;;3.53;2.03;;;26.80;99.90;;;;;;5075427;28;20181;-41
2022/05/23 11:42:50;;;;;;;3.90;2.00;;;26.80;99.90;;;;;;5074716;28;20242;-41
2022/05/23 11:48:36;;;;;;;3.10;1.73;;;27.10;99.90;;;;;;5074982;28;20595;-40
2022/05/23 11:51:23;;;;;;;3.37;1.70;;;27.30;99.90;;;;;;5074006;28;20187;-42
2022/05/23 11:54:00;;;;;;;3.33;1.57;;;27.30;99.90;;;;;;5073680;28;20179;-43
2022/05/23 11:56:40;;;;;;;3.10;1.80;;;27.30;99.90;;;;;;5074581;28;20163;-42
2022/05/23 11:59:09;;;;;;;3.67;1.60;;;27.60;99.90;;;;;;5074558;28;20263;-43
2022/05/23 12:01:37;;;;;;;6.40;2.00;;;27.80;99.90;;;;;;5057117;28;20260;-42
2022/05/23 12:04:03;;;;;;;2.57;1.70;;;27.90;99.90;;;;;;5074541;28;20187;-42
2022/05/23 12:06:28;;;;;;;3.73;2.00;;;28.00;99.90;;;;;;5075609;28;20205;-47
2022/05/23 12:09:02;;;;;;;3.72;2.20;;;28.00;99.90;;;;;;5076436;28;20195;-47
2022/05/23 12:11:32;;;;;;;5.47;1.90;;;28.10;99.90;;;;;;5075636;28;20187;-47
2022/05/23 12:14:19;;;;;;;3.17;1.92;;;28.10;99.90;;;;;;5074324;28;20175;-46
2022/05/23 12:16:57;;;;;;;3.15;1.98;;;27.90;99.90;;;;;;5074281;28;20194;-44
2022/05/23 12:19:32;;;;;;;3.88;1.90;;;27.90;99.90;;;;;;5074639;28;20172;-45
2022/05/23 12:22:19;;;;;;;11.27;1.80;;;27.90;99.90;;;;;;5074650;28;20219;-45
2022/05/23 12:25:09;;;;;;;8.20;1.80;;;27.90;99.90;;;;;;5074357;28;20179;-45
2022/05/23 12:27:44;;;;;;;3.20;2.10;;;27.90;99.90;;;;;;5074520;28;20192;-46
2022/05/23 12:30:25;;;;;;;4.82;1.80;;;27.80;99.90;;;;;;5074224;28;20181;-45
2022/05/23 12:33:04;;;;;;;5.28;1.80;;;27.70;99.90;;;;;;5074434;28;20168;-44
2022/05/23 12:35:44;;;;;;;5.10;2.13;;;27.50;99.90;;;;;;5074519;28;20160;-45
2022/05/23 12:38:43;;;;;;;9.88;2.42;;;27.40;99.90;;;;;;5073995;28;20203;-43
2022/05/23 12:41:11;;;;;;;3.45;1.75;;;27.20;99.90;;;;;;5053580;28;20215;-43
2022/05/23 12:43:55;;;;;;;5.85;2.00;;;27.00;99.90;;;;;;5074199;28;20208;-41
2022/05/23 12:46:56;;;;;;;10.43;2.40;;;26.80;99.90;;;;;;5074018;28;20219;-43
2022/05/23 12:49:38;;;;;;;5.65;2.38;;;26.70;99.90;;;;;;5073891;28;20675;-40
2022/05/23 12:52:20;;;;;;;5.53;2.00;;;26.60;99.90;;;;;;5073611;28;20174;-41
2022/05/23 12:54:49;;;;;;;5.33;2.10;;;26.40;99.90;;;;;;5074385;28;20172;-41
2022/05/23 12:57:29;;;;;;;5.73;2.30;;;26.20;99.90;;;;;;5073966;28;20218;-42
2022/05/23 13:00:17;;;;;;;6.57;2.20;;;26.00;99.90;;;;;;5072503;28;20630;-42
2022/05/23 13:02:55;;;;;;;5.53;2.13;;;25.80;99.90;;;;;;5072879;28;20296;-43
2022/05/23 13:05:31;;;;;;;3.87;2.37;;;25.50;99.90;;;;;;5073822;28;20539;-40
2022/05/23 13:08:02;;;;;;;6.10;2.60;;;25.30;99.90;;;;;;5073895;28;20276;-41
2022/05/23 13:10:34;;;;;;;7.17;2.57;;;25.00;99.90;;;;;;5073522;28;20175;-41
2022/05/23 13:13:29;;;;;;;6.57;2.40;;;24.80;99.90;;;;;;5074274;28;20168;-42
2022/05/23 13:15:55;;;;;;;5.80;2.50;;;24.60;99.90;;;;;;5073641;28;20642;-42
2022/05/23 13:23:52;;;;;;;5.20;3.00;;;24.00;99.90;;;;;;5073652;28;20170;-42
2022/05/23 13:26:19;;;;;;;4.53;2.40;;;23.90;99.90;;;;;;5073278;28;20277;-42
2022/05/23 13:28:53;;;;;;;7.13;2.93;;;23.90;99.90;;;;;;5073354;28;20199;-42
2022/05/23 13:31:25;;;;;;;7.87;3.37;;;23.90;99.90;;;;;;5073599;28;20245;-43
2022/05/23 13:33:53;;;;;;;6.73;2.70;;;24.00;99.90;;;;;;5071974;28;20180;-41
2022/05/23 13:36:19;;;;;;;6.40;2.93;;;24.00;99.90;;;;;;5073356;28;20202;-44
2022/05/23 13:39:05;;;;;;;7.20;3.23;;;24.10;99.90;;;;;;5073282;28;20316;-42
2022/05/23 13:41:33;;;;;;;4.70;3.07;;;24.20;99.90;;;;;;5073422;28;20192;-41
2022/05/23 13:43:59;;;;;;;6.80;2.80;;;24.30;99.90;;;;;;5073135;28;20579;-42
2022/05/23 13:46:31;;;;;;;5.63;2.83;;;24.40;99.90;;;;;;5072913;28;20210;-42
2022/05/23 13:49:01;;;;;;;6.60;3.10;;;24.60;99.90;;;;;;5073542;28;20195;-43
2022/05/23 13:51:44;;;;;;;4.20;2.57;;;24.70;99.90;;;;;;5073378;28;20658;-42
2022/05/23 13:54:12;;;;;;;4.97;2.73;;;24.80;99.90;;;;;;5073185;28;20175;-40
2022/05/23 13:56:42;;;;;;;6.93;2.70;;;24.80;99.90;;;;;;5073042;28;20262;-42
2022/05/23 13:59:17;;;;;;;7.80;3.27;;;24.80;99.90;;;;;;5073135;28;20261;-42
2022/05/23 14:01:49;;;;;;;11.23;3.80;;;24.70;99.90;;;;;;5073387;28;20201;-42
2022/05/23 14:04:20;;;;;;;7.87;3.00;;;24.70;99.90;;;;;;5073189;28;20168;-42
2022/05/23 14:06:54;;;;;;;6.47;2.73;;;24.70;99.90;;;;;;5073347;28;20238;-41
2022/05/23 14:09:21;;;;;;;4.90;2.87;;;24.90;99.90;;;;;;5074214;28;20238;-42
2022/05/23 14:11:56;;;;;;;7.87;2.53;;;25.10;99.90;;;;;;5074945;28;20225;-40
2022/05/23 14:14:39;;;;;;;4.40;2.57;;;25.20;99.90;;;;;;5073756;28;20662;-42
2022/05/23 14:17:14;;;;;;;6.10;2.70;;;25.40;99.90;;;;;;5076970;28;20250;-41